Time;durP1;ratioP1;P1;durP2;ratioP2;P2;SDS_P1;SDS_P2;PMS_P1;PMS_P2;Temp;Humidity;BMP_temperature;BMP_pressure;BME280_temperature;BME280_humidity;BME280_pressure;Samples;Min_cycle;Max_cycle;Signal;HPM_P1;HPM_P2
2023/05/01 00:02:03;;;;;;;1.73;1.73;;;;;;;12.66;66.02;98259.53;7388164;19;19990;-76
2023/05/01 00:04:32;;;;;;;1.25;1.25;;;;;;;12.69;66.56;98251.25;7390521;19;19922;-74
2023/05/01 00:06:59;;;;;;;1.20;1.20;;;;;;;12.70;66.56;98252.88;7385917;19;19942;-76
2023/05/01 00:09:26;;;;;;;1.38;1.38;;;;;;;12.68;66.61;98249.56;7388689;19;19926;-76
2023/05/01 00:11:53;;;;;;;4.82;4.63;;;;;;;12.67;66.76;98247.09;7389801;19;19921;-76
2023/05/01 00:14:20;;;;;;;3.08;2.90;;;;;;;12.58;65.96;98253.44;7385408;19;19924;-77
2023/05/01 00:16:47;;;;;;;1.02;1.02;;;;;;;12.49;66.00;98240.19;7390443;19;19946;-76
2023/05/01 00:19:17;;;;;;;1.92;1.92;;;;;;;12.44;66.33;98233.75;7392076;19;19918;-76
2023/05/01 00:21:46;;;;;;;1.05;1.05;;;;;;;12.38;66.40;98229.13;7381160;19;20580;-76
2023/05/01 00:24:15;;;;;;;1.05;1.05;;;;;;;12.45;66.72;98240.69;7384636;19;19919;-76
2023/05/01 00:26:42;;;;;;;1.08;1.08;;;;;;;12.38;66.61;98226.47;7385359;19;19953;-75
2023/05/01 00:29:08;;;;;;;0.43;0.43;;;;;;;12.39;66.46;98228.13;7383135;19;20487;-75
2023/05/01 00:31:35;;;;;;;1.20;1.20;;;;;;;12.36;66.88;98224.00;7390312;19;20696;-75
2023/05/01 00:34:04;;;;;;;1.35;1.35;;;;;;;12.37;66.78;98217.66;7386668;19;20269;-75
2023/05/01 00:36:31;;;;;;;1.15;1.15;;;;;;;12.45;67.22;98219.47;7388350;19;19925;-75
2023/05/01 00:38:58;;;;;;;1.05;1.05;;;;;;;12.47;66.86;98209.53;7389411;19;19918;-75
2023/05/01 00:41:25;;;;;;;1.10;1.10;;;;;;;12.40;66.02;98208.53;7385485;19;19924;-75
2023/05/01 00:43:52;;;;;;;1.10;1.10;;;;;;;12.41;66.30;98205.72;7385332;19;19922;-75
2023/05/01 00:46:19;;;;;;;1.08;1.08;;;;;;;12.38;66.25;98208.72;7385675;19;20673;-75
2023/05/01 00:48:46;;;;;;;1.23;1.23;;;;;;;12.38;66.38;98206.06;7389559;19;19946;-75
2023/05/01 00:51:14;;;;;;;1.58;1.58;;;;;;;12.33;66.17;98207.59;7387540;19;19970;-75
2023/05/01 00:53:42;;;;;;;1.40;1.40;;;;;;;12.30;66.63;98203.47;7387111;19;19925;-75
2023/05/01 00:56:09;;;;;;;0.90;0.90;;;;;;;12.32;66.72;98200.63;7384244;19;19942;-75
2023/05/01 00:58:37;;;;;;;4.95;4.78;;;;;;;12.34;66.38;98198.63;7384606;19;19910;-75
2023/05/01 01:01:04;;;;;;;1.23;1.23;;;;;;;12.33;66.91;98197.81;7390410;19;19911;-75
2023/05/01 01:03:31;;;;;;;1.45;1.45;;;;;;;12.35;66.98;98197.63;7389859;19;19918;-75
2023/05/01 01:06:07;;;;;;;2.50;2.40;;;;;;;12.36;67.08;98191.34;7387703;19;19923;-75
2023/05/01 01:08:48;;;;;;;1.00;1.00;;;;;;;12.39;67.66;98185.69;7385956;19;19941;-74
2023/05/01 01:11:20;;;;;;;1.83;1.83;;;;;;;12.37;67.27;98183.19;7387482;19;19926;-74
2023/05/01 01:13:55;;;;;;;1.50;1.50;;;;;;;12.30;67.44;98190.19;7388315;19;19981;-75
2023/05/01 01:16:28;;;;;;;1.10;1.10;;;;;;;12.27;67.61;98188.72;7381703;19;20481;-75
2023/05/01 01:19:21;;;;;;;1.15;1.15;;;;;;;12.27;67.73;98188.72;7389677;19;19926;-75
2023/05/01 01:21:50;;;;;;;1.23;1.23;;;;;;;12.24;67.79;98183.75;7386479;19;19922;-75
2023/05/01 01:24:42;;;;;;;2.53;2.45;;;;;;;12.20;67.82;98181.59;7386496;19;20335;-75
2023/05/01 01:27:19;;;;;;;1.33;1.33;;;;;;;12.09;67.36;98182.81;7385073;19;19946;-75
2023/05/01 01:29:55;;;;;;;1.58;1.58;;;;;;;12.04;67.25;98174.53;7382958;19;19954;-75
2023/05/01 01:32:44;;;;;;;1.60;1.60;;;;;;;12.02;67.38;98179.16;7387138;19;19913;-75
2023/05/01 01:35:18;;;;;;;0.98;0.98;;;;;;;11.95;67.50;98176.34;7383228;19;19981;-76
2023/05/01 01:38:05;;;;;;;1.42;1.42;;;;;;;11.93;66.99;98174.88;7382538;19;19919;-75
2023/05/01 01:40:44;;;;;;;1.02;1.02;;;;;;;11.91;67.47;98167.09;7388039;19;19914;-75
2023/05/01 01:43:12;;;;;;;1.20;1.20;;;;;;;11.92;67.55;98176.69;7384562;19;19918;-75
2023/05/01 01:45:42;;;;;;;2.00;1.83;;;;;;;11.94;67.57;98168.59;7384571;19;20335;-75
2023/05/01 01:48:14;;;;;;;1.35;1.35;;;;;;;12.02;67.52;98172.03;7381949;19;20351;-75
2023/05/01 01:50:42;;;;;;;1.20;1.20;;;;;;;12.12;67.87;98169.19;7388438;19;19982;-75
2023/05/01 01:53:10;;;;;;;1.15;1.15;;;;;;;12.17;67.84;98171.34;7379002;19;20339;-75
2023/05/01 01:55:39;;;;;;;1.67;1.67;;;;;;;12.18;67.74;98168.50;7385476;19;19919;-75
2023/05/01 01:58:08;;;;;;;1.83;1.83;;;;;;;12.18;68.19;98176.47;7384359;19;19938;-75
2023/05/01 02:00:35;;;;;;;1.67;1.67;;;;;;;12.15;67.73;98171.50;7385653;19;20308;-77
2023/05/01 02:03:02;;;;;;;1.63;1.60;;;;;;;12.16;67.57;98169.66;7386070;19;19922;-77
2023/05/01 02:05:30;;;;;;;1.35;1.35;;;;;;;12.06;67.51;98160.09;7385574;19;19990;-75
2023/05/01 02:07:58;;;;;;;1.30;1.30;;;;;;;11.98;67.18;98157.47;7382680;19;19919;-76
2023/05/01 02:10:26;;;;;;;1.13;1.13;;;;;;;12.03;68.07;98155.16;7377450;19;19948;-77
2023/05/01 02:12:55;;;;;;;0.10;0.10;;;;;;;12.02;67.26;98152.66;7380857;19;20682;-77
2023/05/01 02:15:23;;;;;;;1.77;1.77;;;;;;;12.02;67.22;98153.47;7381231;19;19915;-77
2023/05/01 02:17:51;;;;;;;1.20;1.20;;;;;;;12.07;67.25;98153.78;7383359;19;19937;-77
2023/05/01 02:20:18;;;;;;;1.55;1.55;;;;;;;12.04;67.55;98148.00;7381710;19;19954;-77
2023/05/01 02:22:46;;;;;;;1.50;1.50;;;;;;;12.03;66.98;98144.53;7381979;19;19922;-77
2023/05/01 02:25:14;;;;;;;1.17;1.17;;;;;;;12.03;67.06;98138.38;7383147;19;19922;-77
2023/05/01 02:27:49;;;;;;;1.27;1.27;;;;;;;12.03;67.03;98144.53;7380288;19;19941;-75
2023/05/01 02:30:17;;;;;;;1.33;1.33;;;;;;;12.04;66.98;98138.22;7380508;19;19915;-75
2023/05/01 02:32:44;;;;;;;1.33;1.33;;;;;;;12.05;66.98;98139.03;7385381;19;19946;-75
2023/05/01 02:35:11;;;;;;;1.15;1.15;;;;;;;12.07;66.99;98135.22;7383270;19;19937;-75
2023/05/01 02:37:38;;;;;;;1.20;1.20;;;;;;;12.07;67.07;98135.22;7383449;19;19915;-75
2023/05/01 02:40:06;;;;;;;1.48;1.48;;;;;;;12.04;67.16;98130.28;7384190;19;19915;-77
2023/05/01 02:42:35;;;;;;;1.15;1.15;;;;;;;12.02;66.94;98131.44;7386465;19;19923;-77
2023/05/01 02:45:05;;;;;;;1.17;1.17;;;;;;;12.03;67.12;98127.78;7381569;19;19922;-75
2023/05/01 02:47:37;;;;;;;1.58;1.58;;;;;;;12.05;67.28;98121.31;7380289;19;19945;-75
2023/05/01 02:50:05;;;;;;;2.15;2.05;;;;;;;12.06;68.08;98116.84;7386049;19;19919;-75
2023/05/01 02:52:32;;;;;;;1.30;1.30;;;;;;;12.04;67.71;98122.31;7380989;19;20347;-77
2023/05/01 02:55:17;;;;;;;1.27;1.27;;;;;;;12.04;67.66;98124.16;7381298;19;19918;-77
2023/05/01 02:57:44;;;;;;;1.45;1.45;;;;;;;12.03;68.03;98119.81;7383682;19;20606;-77
2023/05/01 03:00:12;;;;;;;2.50;2.45;;;;;;;11.98;67.82;98119.50;7377567;19;19930;-77
2023/05/01 03:02:39;;;;;;;1.38;1.38;;;;;;;12.01;68.33;98119.19;7385747;19;19933;-75
2023/05/01 03:05:07;;;;;;;2.28;2.28;;;;;;;12.02;68.25;98121.66;7385589;19;19914;-77
2023/05/01 03:07:34;;;;;;;2.45;2.40;;;;;;;12.02;68.19;98116.34;7379208;19;19922;-75
2023/05/01 03:10:05;;;;;;;1.17;1.17;;;;;;;11.97;68.20;98116.03;7385873;19;19914;-77
2023/05/01 03:12:31;;;;;;;2.38;2.17;;;;;;;11.92;68.25;98112.25;7379777;19;19999;-75
2023/05/01 03:14:59;;;;;;;1.00;1.00;;;;;;;11.93;68.31;98114.75;7380185;19;19918;-75
2023/05/01 03:17:26;;;;;;;1.08;1.08;;;;;;;11.98;68.57;98114.22;7381202;19;22569;-77
2023/05/01 03:19:52;;;;;;;1.85;1.85;;;;;;;12.01;68.80;98114.72;7384879;19;19915;-77
2023/05/01 03:22:20;;;;;;;1.20;1.20;;;;;;;11.98;68.82;98111.56;7384069;19;19922;-75
2023/05/01 03:24:46;;;;;;;1.50;1.50;;;;;;;11.94;68.80;98118.22;7386175;19;19927;-77
2023/05/01 03:27:13;;;;;;;1.48;1.48;;;;;;;11.96;68.65;98117.03;7380876;19;19958;-75
2023/05/01 03:29:40;;;;;;;2.92;2.83;;;;;;;11.92;68.75;98112.25;7381984;19;19922;-77
2023/05/01 03:32:07;;;;;;;2.40;2.30;;;;;;;11.94;68.66;98113.72;7381956;19;19921;-75
2023/05/01 03:34:34;;;;;;;1.10;1.10;;;;;;;11.89;68.10;98100.16;7382404;19;19945;-75
2023/05/01 03:37:01;;;;;;;2.58;2.50;;;;;;;11.88;68.46;98105.66;7388270;19;19951;-75
2023/05/01 03:39:27;;;;;;;1.00;1.00;;;;;;;11.86;68.48;98106.63;7405417;19;19917;-77
2023/05/01 03:42:26;;;;;;;1.27;1.27;;;;;;;11.89;68.65;98105.47;7395257;19;19990;-77
2023/05/01 03:44:59;;;;;;;1.67;1.65;;;;;;;11.96;68.80;98097.66;7388161;19;19973;-75
2023/05/01 03:47:27;;;;;;;1.80;1.80;;;;;;;11.96;69.03;98095.84;7387142;19;20772;-75
2023/05/01 03:49:54;;;;;;;1.15;1.15;;;;;;;11.97;69.01;98099.31;7386215;19;19927;-75
2023/05/01 03:52:21;;;;;;;1.48;1.48;;;;;;;11.95;68.85;98091.50;7384519;19;19970;-75
2023/05/01 03:54:50;;;;;;;1.20;1.20;;;;;;;11.96;69.27;98098.50;7389207;19;19929;-75
2023/05/01 03:57:23;;;;;;;1.40;1.40;;;;;;;11.91;68.83;98086.75;7385578;19;19930;-76
2023/05/01 03:59:50;;;;;;;1.38;1.38;;;;;;;11.92;69.08;98086.56;7388794;19;19922;-75
2023/05/01 04:02:18;;;;;;;2.33;2.30;;;;;;;11.89;69.07;98086.91;7386729;19;20276;-75
2023/05/01 04:04:45;;;;;;;1.65;1.65;;;;;;;11.86;69.25;98087.25;7390480;19;19926;-75
2023/05/01 04:07:12;;;;;;;2.20;2.20;;;;;;;11.92;68.94;98091.03;7383947;19;19962;-77
2023/05/01 04:09:40;;;;;;;1.35;1.35;;;;;;;11.91;68.79;98086.75;7387459;19;20371;-75
2023/05/01 04:12:06;;;;;;;3.00;2.90;;;;;;;11.93;69.17;98092.69;7389887;19;20840;-74
2023/05/01 04:14:33;;;;;;;1.50;1.50;;;;;;;12.00;69.29;98088.34;7386466;19;19926;-77
2023/05/01 04:17:01;;;;;;;1.30;1.30;;;;;;;12.04;69.24;98087.84;7386026;19;19914;-75
2023/05/01 04:19:31;;;;;;;1.30;1.30;;;;;;;12.06;69.16;98087.69;7388007;19;20361;-75
2023/05/01 04:21:59;;;;;;;1.45;1.45;;;;;;;12.06;69.23;98087.69;7388552;19;19918;-76
2023/05/01 04:24:27;;;;;;;1.65;1.65;;;;;;;12.06;69.22;98085.03;7381439;19;19994;-75
2023/05/01 04:26:53;;;;;;;1.40;1.40;;;;;;;12.10;69.64;98086.31;7381193;19;19915;-77
2023/05/01 04:29:20;;;;;;;1.35;1.35;;;;;;;12.13;69.06;98087.81;7385289;19;19925;-77
2023/05/01 04:31:47;;;;;;;1.40;1.40;;;;;;;12.10;69.47;98086.31;7388890;19;20395;-76
2023/05/01 04:34:15;;;;;;;1.42;1.42;;;;;;;12.09;68.89;98090.00;7390234;19;20327;-77
2023/05/01 04:36:41;;;;;;;2.20;2.20;;;;;;;12.08;69.05;98088.31;7390596;19;20030;-77
2023/05/01 04:39:09;;;;;;;3.08;2.97;;;;;;;12.07;68.70;98086.69;7385949;19;19918;-76
2023/05/01 04:41:36;;;;;;;1.02;1.02;;;;;;;12.06;68.49;98093.81;7380197;19;19926;-77
2023/05/01 04:44:04;;;;;;;1.15;1.15;;;;;;;12.10;67.97;98096.13;7379623;19;20380;-78
2023/05/01 04:46:31;;;;;;;1.40;1.40;;;;;;;12.15;68.28;98091.94;7386736;19;19989;-78
2023/05/01 04:48:57;;;;;;;1.52;1.52;;;;;;;12.22;68.55;98087.59;7378878;19;19918;-76
2023/05/01 04:51:24;;;;;;;1.65;1.65;;;;;;;12.22;68.04;98084.97;7392267;19;20371;-77
2023/05/01 04:53:53;;;;;;;1.27;1.27;;;;;;;12.25;67.53;98091.75;7390343;19;19919;-76
2023/05/01 04:56:24;;;;;;;1.33;1.33;;;;;;;12.28;67.46;98094.03;7384477;19;19994;-75
2023/05/01 04:58:55;;;;;;;0.25;0.25;;;;;;;12.27;67.35;98093.22;7383777;19;20879;-77
2023/05/01 05:01:24;;;;;;;1.23;1.23;;;;;;;12.29;67.34;98085.91;7386318;19;19926;-77
2023/05/01 05:03:51;;;;;;;1.75;1.75;;;;;;;12.34;67.03;98079.25;7391126;19;19921;-77
2023/05/01 05:06:18;;;;;;;1.20;1.20;;;;;;;12.36;67.19;98090.53;7383059;19;19935;-77
2023/05/01 05:08:45;;;;;;;1.52;1.52;;;;;;;12.39;67.40;98090.19;7389905;19;19939;-76
2023/05/01 05:11:12;;;;;;;1.17;1.17;;;;;;;12.41;67.38;98090.84;7390926;19;19918;-78
2023/05/01 05:13:47;;;;;;;1.67;1.67;;;;;;;12.46;67.25;98096.44;7385080;19;19922;-77
2023/05/01 05:16:14;;;;;;;1.55;1.55;;;;;;;12.52;67.57;98093.91;7385623;19;19926;-75
2023/05/01 05:18:41;;;;;;;3.35;3.25;;;;;;;12.59;67.89;98101.19;7388393;19;19918;-77
2023/05/01 05:21:09;;;;;;;1.30;1.30;;;;;;;12.62;67.71;98099.00;7389573;19;20335;-76
2023/05/01 05:23:39;;;;;;;1.48;1.48;;;;;;;12.69;67.84;98089.34;7376350;19;20009;-75
2023/05/01 05:26:06;;;;;;;2.90;2.80;;;;;;;12.73;67.59;98090.63;7389430;19;19936;-75
2023/05/01 05:28:33;;;;;;;1.20;1.20;;;;;;;12.77;67.78;98087.59;7385359;19;19927;-77
2023/05/01 05:31:00;;;;;;;1.08;1.08;;;;;;;12.74;67.27;98092.28;7384084;19;19941;-75
2023/05/01 05:33:28;;;;;;;1.90;1.88;;;;;;;12.76;67.40;98096.59;7380178;19;19922;-75
2023/05/01 05:35:57;;;;;;;1.13;1.13;;;;;;;12.82;67.41;98095.88;7390799;19;20340;-75
2023/05/01 05:38:27;;;;;;;1.63;1.52;;;;;;;12.87;67.46;98090.84;7382673;19;19927;-75
2023/05/01 05:40:58;;;;;;;1.30;1.30;;;;;;;12.88;67.38;98088.03;7386607;19;19990;-75
2023/05/01 05:43:24;;;;;;;1.13;1.13;;;;;;;12.89;67.12;98083.53;7386957;19;19921;-75
2023/05/01 05:45:58;;;;;;;1.38;1.38;;;;;;;12.92;66.46;98091.97;7386147;19;19919;-77
2023/05/01 05:48:26;;;;;;;1.17;1.17;;;;;;;12.93;66.86;98090.16;7382012;19;19927;-77
2023/05/01 05:50:53;;;;;;;1.08;1.08;;;;;;;12.95;66.75;98085.47;7389627;19;20022;-75
2023/05/01 05:53:20;;;;;;;1.00;1.00;;;;;;;12.90;66.34;98082.53;7382737;19;19942;-75
2023/05/01 05:55:51;;;;;;;1.10;1.10;;;;;;;12.89;66.03;98084.38;7388055;19;19919;-76
2023/05/01 05:58:22;;;;;;;1.20;1.20;;;;;;;12.92;65.84;98091.16;7376910;19;19929;-76
2023/05/01 06:00:51;;;;;;;1.00;1.00;;;;;;;12.93;65.96;98088.34;7385992;19;19999;-75
2023/05/01 06:03:18;;;;;;;1.10;1.10;;;;;;;12.94;66.00;98091.81;7381232;19;19942;-76
2023/05/01 06:05:46;;;;;;;1.95;1.85;;;;;;;12.90;66.09;98091.34;7385474;19;19923;-75
2023/05/01 06:08:13;;;;;;;0.98;0.98;;;;;;;12.92;66.32;98091.16;7383803;19;19926;-76
2023/05/01 06:10:43;;;;;;;1.15;1.15;;;;;;;12.93;66.32;98095.47;7383085;19;19918;-76
2023/05/01 06:13:11;;;;;;;1.50;1.50;;;;;;;12.91;66.17;98090.34;7384603;19;19945;-76
2023/05/01 06:15:42;;;;;;;1.10;1.10;;;;;;;12.94;66.47;98094.47;7383614;19;19918;-77
2023/05/01 06:18:10;;;;;;;1.13;1.13;;;;;;;12.91;66.10;98093.00;7379259;19;19922;-75
2023/05/01 06:20:37;;;;;;;0.25;0.25;;;;;;;12.92;66.22;98091.97;7379962;19;20971;-78
2023/05/01 06:23:04;;;;;;;1.00;1.00;;;;;;;12.95;66.37;98090.78;7385966;19;19922;-76
2023/05/01 06:25:48;;;;;;;1.05;1.05;;;;;;;12.96;66.16;98089.81;7390087;19;19915;-77
2023/05/01 06:28:15;;;;;;;1.33;1.33;;;;;;;12.95;65.66;98085.47;7380738;19;20349;-78
2023/05/01 06:30:42;;;;;;;1.08;1.08;;;;;;;12.96;65.59;98092.47;7380649;19;19951;-77
2023/05/01 06:33:09;;;;;;;1.15;1.15;;;;;;;12.93;66.02;98091.00;7387439;19;20372;-77
2023/05/01 06:35:38;;;;;;;1.00;1.00;;;;;;;12.98;65.88;98089.63;7380232;19;19925;-75
2023/05/01 06:38:05;;;;;;;1.02;1.02;;;;;;;13.01;65.65;98099.91;7380245;19;19922;-77
2023/05/01 06:40:34;;;;;;;1.20;1.20;;;;;;;13.07;66.11;98099.19;7383012;19;19939;-77
2023/05/01 06:43:01;;;;;;;1.20;1.20;;;;;;;13.12;66.23;98102.13;7386005;19;19914;-75
2023/05/01 06:45:29;;;;;;;1.08;1.08;;;;;;;13.18;66.15;98099.56;7379568;19;19920;-77
2023/05/01 06:47:56;;;;;;;0.20;0.20;;;;;;;13.24;65.89;98100.69;7376883;19;21290;-75
2023/05/01 06:50:22;;;;;;;1.08;1.08;;;;;;;13.29;65.67;98108.16;7382360;19;19914;-76
2023/05/01 06:52:49;;;;;;;0.88;0.88;;;;;;;13.31;65.65;98114.94;7389035;19;20046;-78
2023/05/01 06:55:16;;;;;;;1.00;1.00;;;;;;;13.33;65.22;98110.28;7379134;19;19919;-76
2023/05/01 06:57:43;;;;;;;11.77;11.18;;;;;;;13.34;64.64;98111.91;7379941;19;20351;-76
2023/05/01 07:00:11;;;;;;;1.17;1.17;;;;;;;13.32;64.48;98119.25;7383253;19;19919;-76
2023/05/01 07:02:39;;;;;;;1.15;1.15;;;;;;;13.37;64.51;98119.53;7386412;19;19918;-77
2023/05/01 07:05:06;;;;;;;0.55;0.55;;;;;;;13.43;64.51;98125.13;7383310;19;20260;-79
2023/05/01 07:07:33;;;;;;;0.93;0.93;;;;;;;13.47;64.69;98126.44;7383017;19;19915;-78
2023/05/01 07:10:00;;;;;;;0.50;0.50;;;;;;;13.48;64.27;98126.25;7395345;19;20172;-78
2023/05/01 07:12:28;;;;;;;1.02;1.02;;;;;;;13.57;64.49;98127.00;7385102;19;19922;-76
2023/05/01 07:14:58;;;;;;;1.10;1.10;;;;;;;13.60;64.36;98124.78;7385945;19;19930;-77
2023/05/01 07:17:25;;;;;;;1.23;1.23;;;;;;;13.63;64.14;98131.59;7387032;19;19932;-77
2023/05/01 07:19:52;;;;;;;1.10;1.10;;;;;;;13.66;63.41;98130.41;7391333;19;19926;-77
2023/05/01 07:22:19;;;;;;;1.02;1.02;;;;;;;13.61;63.68;98129.13;7391719;19;19915;-77
2023/05/01 07:24:46;;;;;;;0.82;0.82;;;;;;;13.62;63.38;98124.63;7390393;19;19922;-77
2023/05/01 07:27:13;;;;;;;2.13;2.13;;;;;;;13.67;63.73;98129.41;7389571;19;19944;-77
2023/05/01 07:29:40;;;;;;;1.73;1.70;;;;;;;13.67;63.76;98127.56;7381827;19;19915;-77
2023/05/01 07:32:06;;;;;;;1.35;1.35;;;;;;;13.64;64.33;98127.94;7384659;19;20359;-77
2023/05/01 07:34:33;;;;;;;0.40;0.40;;;;;;;13.59;64.19;98120.50;7378955;19;20386;-77
2023/05/01 07:37:00;;;;;;;0.95;0.95;;;;;;;13.66;64.77;98120.59;7381336;19;19911;-77
2023/05/01 07:39:27;;;;;;;1.02;1.02;;;;;;;13.62;64.63;98121.97;7383475;19;19950;-77
2023/05/01 07:41:56;;;;;;;1.00;1.00;;;;;;;13.63;64.08;98120.97;7390334;19;20461;-77
2023/05/01 07:44:23;;;;;;;1.20;1.20;;;;;;;13.69;64.28;98116.75;7386516;19;19919;-78
2023/05/01 07:46:50;;;;;;;1.02;1.02;;;;;;;13.73;64.24;98105.56;7391433;19;19915;-78
2023/05/01 07:49:17;;;;;;;1.48;1.48;;;;;;;13.82;64.82;98116.94;7390006;19;19944;-77
2023/05/01 07:51:44;;;;;;;1.13;1.13;;;;;;;13.88;65.66;98124.19;7383457;19;19922;-78
2023/05/01 07:54:13;;;;;;;1.60;1.60;;;;;;;13.86;65.45;98115.56;7382239;19;19930;-77
2023/05/01 07:56:40;;;;;;;0.73;0.73;;;;;;;13.91;65.35;98112.38;7383654;19;20244;-78
2023/05/01 07:59:07;;;;;;;1.25;1.25;;;;;;;13.95;65.51;98113.63;7381025;19;19919;-77
2023/05/01 08:01:35;;;;;;;1.42;1.42;;;;;;;13.96;65.40;98110.81;7385799;19;19918;-77
2023/05/01 08:04:02;;;;;;;1.40;1.40;;;;;;;14.12;65.24;98111.63;7386664;19;19918;-78
2023/05/01 08:06:29;;;;;;;1.23;1.23;;;;;;;14.27;64.91;98109.78;7385855;19;19925;-77
2023/05/01 08:08:56;;;;;;;1.08;1.08;;;;;;;14.41;64.64;98108.09;7389153;19;19914;-78
2023/05/01 08:11:23;;;;;;;0.85;0.85;;;;;;;14.57;64.18;98107.91;7384492;19;19922;-78
2023/05/01 08:13:50;;;;;;;0.90;0.90;;;;;;;14.61;62.94;98111.00;7391303;19;19922;-78
2023/05/01 08:16:18;;;;;;;1.25;1.25;;;;;;;14.75;63.13;98112.81;7384368;19;19923;-78
2023/05/01 08:18:47;;;;;;;0.90;0.90;;;;;;;14.86;63.03;98100.84;7386246;19;20348;-78
2023/05/01 08:21:14;;;;;;;0.73;0.73;;;;;;;14.96;62.72;98105.88;7387839;19;19927;-79
2023/05/01 08:23:41;;;;;;;1.05;1.05;;;;;;;15.02;62.06;98097.09;7384652;19;19915;-78
2023/05/01 08:26:08;;;;;;;0.93;0.93;;;;;;;15.18;61.92;98091.50;7387004;19;19918;-77
2023/05/01 08:28:35;;;;;;;1.38;1.38;;;;;;;15.20;61.47;98099.31;7381885;19;20352;-77
2023/05/01 08:31:02;;;;;;;0.82;0.82;;;;;;;15.28;61.61;98088.50;7393965;19;20026;-77
2023/05/01 08:33:29;;;;;;;1.67;1.67;;;;;;;15.34;61.33;98091.22;7387541;19;19922;-77
2023/05/01 08:35:56;;;;;;;0.73;0.73;;;;;;;15.41;61.44;98087.81;7389958;19;19922;-78
2023/05/01 08:38:22;;;;;;;0.82;0.82;;;;;;;15.38;60.79;98086.34;7386752;19;20037;-77
2023/05/01 08:40:52;;;;;;;2.17;2.08;;;;;;;15.42;61.01;98086.78;7395655;19;19954;-78
2023/05/01 08:43:19;;;;;;;1.38;1.38;;;;;;;15.47;61.32;98092.34;7380903;19;19919;-77
2023/05/01 08:45:46;;;;;;;0.80;0.80;;;;;;;15.47;61.06;98092.34;7385020;19;19914;-77
2023/05/01 08:48:16;;;;;;;1.48;1.27;;;;;;;15.52;61.69;98087.25;7389707;19;19914;-77
2023/05/01 08:50:45;;;;;;;0.90;0.90;;;;;;;15.59;61.13;98094.28;7385796;19;19942;-77
2023/05/01 08:53:14;;;;;;;1.50;1.50;;;;;;;15.73;61.26;98094.41;7387124;19;19919;-77
2023/05/01 08:55:44;;;;;;;0.82;0.82;;;;;;;15.73;60.21;98097.91;7385294;19;19918;-77
2023/05/01 08:58:12;;;;;;;1.77;1.65;;;;;;;15.85;60.07;98100.00;7380879;19;19950;-76
2023/05/01 09:00:39;;;;;;;1.05;1.05;;;;;;;15.99;59.65;98094.56;7385213;19;19946;-76
2023/05/01 09:03:06;;;;;;;0.63;0.63;;;;;;;16.08;58.78;98097.88;7388615;19;20346;-76
2023/05/01 09:05:33;;;;;;;1.92;1.73;;;;;;;16.33;59.73;98092.88;7387999;19;20344;-77
2023/05/01 09:08:00;;;;;;;0.93;0.93;;;;;;;16.43;58.11;98095.19;7384594;19;19922;-76
2023/05/01 09:10:27;;;;;;;0.73;0.73;;;;;;;16.48;57.15;98099.91;7385449;19;19922;-76
2023/05/01 09:12:56;;;;;;;0.85;0.85;;;;;;;16.39;57.72;98100.06;7385635;19;19946;-75
2023/05/01 09:15:27;;;;;;;0.75;0.75;;;;;;;16.60;55.58;98101.78;7383346;19;20359;-75
2023/05/01 09:17:55;;;;;;;1.80;1.80;;;;;;;16.82;55.21;98097.16;7381575;19;19931;-76
2023/05/01 09:20:23;;;;;;;0.85;0.85;;;;;;;16.96;56.49;98098.00;7383818;19;19921;-75
2023/05/01 09:22:50;;;;;;;0.82;0.80;;;;;;;17.21;56.29;98095.56;7387414;19;19935;-76
2023/05/01 09:25:18;;;;;;;0.52;0.50;;;;;;;17.32;56.93;98086.94;7383905;19;20254;-76
2023/05/01 09:27:45;;;;;;;0.90;0.90;;;;;;;17.60;54.46;98093.09;7381102;19;20367;-76
2023/05/01 09:30:35;;;;;;;0.90;0.90;;;;;;;17.84;52.95;98099.66;7382720;19;20358;-76
2023/05/01 09:33:08;;;;;;;0.65;0.65;;;;;;;17.88;53.28;98104.41;7384090;19;19974;-76
2023/05/01 09:35:55;;;;;;;0.60;0.60;;;;;;;18.29;53.64;98103.22;7379653;19;20352;-77
2023/05/01 09:38:27;;;;;;;0.70;0.70;;;;;;;18.38;52.04;98098.47;7378401;19;19914;-76
2023/05/01 09:40:56;;;;;;;0.50;0.50;;;;;;;18.31;52.83;98105.72;7382653;19;19954;-77
2023/05/01 09:43:25;;;;;;;0.82;0.82;;;;;;;18.34;52.48;98103.41;7380813;19;19922;-76
2023/05/01 09:46:19;;;;;;;4.82;2.58;;;;;;;18.12;53.69;98096.72;7383731;19;19926;-75
2023/05/01 09:48:57;;;;;;;1.10;0.65;;;;;;;18.20;51.91;98089.28;7381978;19;21514;-75
2023/05/01 09:51:31;;;;;;;0.60;0.60;;;;;;;18.20;51.99;98093.81;7378964;19;19970;-75
2023/05/01 09:54:00;;;;;;;2.53;1.08;;;;;;;18.24;52.09;98086.16;7386832;19;19919;-76
2023/05/01 09:56:32;;;;;;;1.20;1.00;;;;;;;18.40;53.85;98083.00;7381276;19;19940;-76
2023/05/01 09:59:17;;;;;;;0.30;0.30;;;;;;;18.50;53.58;98087.91;7382347;19;20311;-76
2023/05/01 10:01:45;;;;;;;1.10;0.98;;;;;;;18.32;50.50;98086.75;7376416;19;20609;-75
2023/05/01 10:04:12;;;;;;;0.98;0.98;;;;;;;18.26;52.13;98092.94;7380517;19;20344;-75
2023/05/01 10:06:40;;;;;;;0.85;0.85;;;;;;;17.97;52.83;98088.94;7376290;19;19915;-75
2023/05/01 10:09:15;;;;;;;0.95;0.95;;;;;;;18.12;53.82;98084.16;7384198;19;19915;-74
2023/05/01 10:11:57;;;;;;;0.90;0.90;;;;;;;18.08;53.63;98082.09;7377999;19;20343;-75
2023/05/01 10:14:26;;;;;;;0.70;0.70;;;;;;;18.04;53.54;98088.94;7376479;19;19922;-75
2023/05/01 10:16:56;;;;;;;0.77;0.77;;;;;;;18.16;53.88;98089.91;7380387;19;19922;-74
2023/05/01 10:19:24;;;;;;;1.45;1.40;;;;;;;18.45;52.38;98091.22;7380336;19;19939;-75
2023/05/01 10:21:52;;;;;;;1.42;1.42;;;;;;;18.38;52.12;98090.44;7380955;19;19923;-74
2023/05/01 10:24:19;;;;;;;1.60;1.50;;;;;;;18.37;52.03;98089.59;7383014;19;19918;-74
2023/05/01 10:26:47;;;;;;;0.20;0.20;;;;;;;18.43;51.71;98083.41;7382354;19;20304;-75
2023/05/01 10:29:14;;;;;;;1.05;0.98;;;;;;;18.29;50.81;98084.50;7380063;19;19933;-75
2023/05/01 10:31:41;;;;;;;0.25;0.25;;;;;;;18.37;51.96;98089.59;7377790;19;20290;-76
2023/05/01 10:34:10;;;;;;;1.55;1.55;;;;;;;18.34;51.28;98083.84;7386019;19;19918;-75
2023/05/01 10:36:42;;;;;;;1.45;1.35;;;;;;;17.94;50.28;98100.06;7370059;19;19945;-76
2023/05/01 10:39:32;;;;;;;1.27;1.27;;;;;;;17.96;50.14;98088.13;7379261;19;19919;-77
2023/05/01 10:42:12;;;;;;;0.50;0.50;;;;;;;18.18;51.25;98087.84;7388994;19;20263;-76
2023/05/01 10:44:40;;;;;;;1.00;1.00;;;;;;;18.22;50.80;98089.06;7369966;19;19919;-77
2023/05/01 10:47:27;;;;;;;1.00;1.00;;;;;;;18.27;51.02;98078.53;7380549;19;19928;-76
2023/05/01 10:50:10;;;;;;;0.95;0.95;;;;;;;18.63;53.98;98085.16;7377848;19;20354;-76
2023/05/01 10:53:08;;;;;;;1.00;1.00;;;;;;;18.52;49.77;98080.50;7373028;19;19926;-77
2023/05/01 10:55:36;;;;;;;0.82;0.82;;;;;;;18.58;51.40;98080.44;7375751;19;19925;-76
2023/05/01 10:58:03;;;;;;;0.75;0.75;;;;;;;18.54;51.35;98075.75;7375230;19;19926;-75
2023/05/01 11:00:31;;;;;;;0.60;0.60;;;;;;;18.20;50.47;98078.56;7374156;19;19914;-75
2023/05/01 11:03:19;;;;;;;0.80;0.77;;;;;;;18.09;51.23;98081.06;7381174;19;20355;-76
2023/05/01 11:05:58;;;;;;;0.70;0.70;;;;;;;18.30;53.31;98083.47;7384056;19;19937;-75
2023/05/01 11:08:34;;;;;;;0.60;0.60;;;;;;;18.47;53.18;98078.44;7378255;19;19930;-76
2023/05/01 11:11:21;;;;;;;1.25;1.25;;;;;;;18.58;51.46;98079.63;7378011;19;19918;-77
2023/05/01 11:14:04;;;;;;;0.22;0.17;;;;;;;18.42;50.61;98081.75;7378872;19;20330;-77
2023/05/01 11:16:44;;;;;;;0.63;0.63;;;;;;;18.56;49.57;98077.19;7381337;19;19915;-78
2023/05/01 11:19:17;;;;;;;1.67;1.58;;;;;;;18.32;49.28;98075.22;7375134;19;19929;-76
2023/05/01 11:21:44;;;;;;;0.90;0.90;;;;;;;18.51;48.96;98065.44;7373616;19;19926;-77
2023/05/01 11:24:11;;;;;;;0.95;0.60;;;;;;;18.63;49.92;98071.75;7377549;19;20243;-76
2023/05/01 11:26:39;;;;;;;0.63;0.63;;;;;;;18.58;50.85;98071.59;7372348;19;19942;-78
2023/05/01 11:29:09;;;;;;;0.70;0.70;;;;;;;18.36;50.14;98063.06;7372149;19;19915;-76
2023/05/01 11:31:37;;;;;;;1.17;1.17;;;;;;;18.28;50.50;98068.66;7369120;19;19914;-78
2023/05/01 11:34:07;;;;;;;0.95;0.95;;;;;;;18.41;51.84;98072.09;7381159;19;19919;-76
2023/05/01 11:36:48;;;;;;;0.98;0.98;;;;;;;18.78;51.83;98069.66;7372629;19;21047;-77
2023/05/01 11:39:18;;;;;;;0.77;0.77;;;;;;;18.97;50.67;98051.78;7381584;19;19911;-77
2023/05/01 11:41:45;;;;;;;;;;;;;;;18.79;49.96;98071.28;7380817;19;20411;-77
2023/05/01 11:44:16;;;;;;;1.05;1.05;;;;;;;19.01;48.38;98060.19;7382278;19;19938;-76
2023/05/01 11:46:43;;;;;;;1.13;1.13;;;;;;;18.89;48.23;98059.28;7375669;19;19919;-76